Time;durP1;ratioP1;P1;durP2;ratioP2;P2;SDS_P1;SDS_P2;PMS_P1;PMS_P2;Temp;Humidity;BMP_temperature;BMP_pressure;BME280_temperature;BME280_humidity;BME280_pressure;Samples;Min_cycle;Max_cycle;Signal;HPM_P1;HPM_P2
2022/11/11 00:00:22;;;;;;;11.10;4.80;;;12.40;99.90;;;;;;5130933;27;20888;-75
2022/11/11 00:02:48;;;;;;;11.32;6.00;;;12.30;99.90;;;;;;5124794;27;20399;-75
2022/11/11 00:05:15;;;;;;;14.65;5.75;;;12.30;99.90;;;;;;5117336;27;20915;-75
2022/11/11 00:07:41;;;;;;;12.68;5.70;;;12.30;99.90;;;;;;5112051;27;20402;-75
2022/11/11 00:10:07;;;;;;;12.50;5.60;;;12.30;99.90;;;;;;5109303;28;20929;-75
2022/11/11 00:12:33;;;;;;;13.48;6.25;;;12.30;99.90;;;;;;5129488;27;20497;-75
2022/11/11 00:14:58;;;;;;;14.40;6.43;;;12.30;99.90;;;;;;5124151;27;20542;-75
2022/11/11 00:25:40;;;;;;;13.20;6.65;;;12.20;99.90;;;;;;5123718;27;20410;-75
2022/11/11 00:28:06;;;;;;;14.50;6.77;;;12.20;99.90;;;;;;5099959;27;20403;-75
2022/11/11 00:30:32;;;;;;;13.10;6.93;;;12.20;99.90;;;;;;5123899;27;20947;-75
2022/11/11 00:32:57;;;;;;;13.17;6.53;;;12.20;99.90;;;;;;5129891;27;20391;-75
2022/11/11 00:38:44;;;;;;;13.13;7.25;;;12.10;99.90;;;;;;5130118;27;20398;-75
2022/11/11 00:40:56;;;;;;;13.20;6.90;;;12.10;99.90;;;;;;5116577;27;20407;-75
2022/11/11 00:43:22;;;;;;;14.35;7.05;;;12.10;99.90;;;;;;5111464;27;20417;-75
2022/11/11 00:45:47;;;;;;;13.63;6.67;;;12.10;99.90;;;;;;5130160;27;20394;-75
2022/11/11 00:51:00;;;;;;;14.88;7.45;;;12.10;99.90;;;;;;5129905;27;20422;-75
2022/11/11 00:53:35;;;;;;;14.15;6.78;;;12.10;99.90;;;;;;5128516;27;20401;-75
2022/11/11 00:56:01;;;;;;;12.43;7.25;;;12.10;99.90;;;;;;5118784;27;20908;-74
2022/11/11 00:58:27;;;;;;;15.13;7.25;;;12.10;99.90;;;;;;5106129;28;20412;-75
2022/11/11 01:00:53;;;;;;;15.20;7.30;;;12.10;99.90;;;;;;5090359;28;20434;-75
2022/11/11 01:03:19;;;;;;;14.77;7.40;;;12.10;99.90;;;;;;5107141;28;20408;-75
2022/11/11 01:05:45;;;;;;;13.93;7.32;;;12.10;99.90;;;;;;5107853;28;20916;-75
2022/11/11 01:08:11;;;;;;;15.13;7.35;;;12.10;99.90;;;;;;5107049;28;20417;-75
2022/11/11 01:10:37;;;;;;;16.67;7.67;;;12.10;99.90;;;;;;5109951;27;20462;-75
2022/11/11 01:13:12;;;;;;;14.90;6.88;;;12.10;99.90;;;;;;5123261;27;20468;-75
2022/11/11 01:15:43;;;;;;;15.40;7.22;;;12.10;99.90;;;;;;5101184;28;20427;-75
2022/11/11 01:18:10;;;;;;;14.70;6.90;;;12.00;99.90;;;;;;5129009;27;20406;-75
2022/11/11 01:20:37;;;;;;;14.27;7.60;;;12.10;99.90;;;;;;5128388;27;20413;-75
2022/11/11 01:23:04;;;;;;;14.43;7.47;;;12.10;99.90;;;;;;5110055;27;20455;-75
2022/11/11 01:25:35;;;;;;;13.13;7.60;;;12.10;99.90;;;;;;5128346;27;20960;-75
2022/11/11 01:28:03;;;;;;;15.93;7.70;;;12.10;99.90;;;;;;5109372;28;20400;-75
2022/11/11 01:30:31;;;;;;;14.18;7.00;;;12.10;99.90;;;;;;5123706;27;20409;-75
2022/11/11 01:32:56;;;;;;;15.10;7.15;;;12.10;99.90;;;;;;5129100;27;20434;-75
2022/11/11 01:35:22;;;;;;;16.52;7.45;;;12.10;99.90;;;;;;5109798;27;20445;-75
2022/11/11 01:37:48;;;;;;;16.40;7.90;;;12.10;99.90;;;;;;5110636;28;20501;-75
2022/11/11 01:40:13;;;;;;;14.93;8.05;;;12.10;99.90;;;;;;5128886;27;20486;-75
2022/11/11 01:43:09;;;;;;;16.50;7.80;;;12.10;99.90;;;;;;5129448;27;20428;-75
2022/11/11 01:45:56;;;;;;;19.63;7.97;;;12.20;99.90;;;;;;5101783;28;20872;-75
2022/11/11 01:51:41;;;;;;;16.02;8.00;;;12.20;99.90;;;;;;5097075;28;20447;-75
2022/11/11 01:54:11;;;;;;;15.05;7.60;;;12.20;99.90;;;;;;5117631;28;20530;-75
2022/11/11 01:56:38;;;;;;;15.65;7.55;;;12.20;99.90;;;;;;5126593;28;20417;-75
2022/11/11 01:59:11;;;;;;;15.82;7.88;;;12.20;99.90;;;;;;5109123;28;20407;-75
2022/11/11 02:01:38;;;;;;;15.90;7.00;;;12.20;99.90;;;;;;5122571;28;20457;-75
2022/11/11 02:06:53;;;;;;;14.53;7.60;;;12.20;99.90;;;;;;5098627;28;20897;-75
2022/11/11 02:09:21;;;;;;;13.80;7.67;;;12.20;99.90;;;;;;5127115;27;20398;-75
2022/11/11 02:14:41;;;;;;;15.30;7.40;;;12.20;99.90;;;;;;5129986;27;20822;-75
2022/11/11 02:17:13;;;;;;;14.73;7.60;;;12.20;99.90;;;;;;5133406;27;20764;-74
2022/11/11 02:19:47;;;;;;;14.68;8.18;;;12.20;99.90;;;;;;5110943;28;20479;-74
2022/11/11 02:22:25;;;;;;;15.90;7.47;;;12.30;99.90;;;;;;5114066;27;20457;-75
2022/11/11 02:24:52;;;;;;;17.47;7.87;;;12.20;99.90;;;;;;5120843;27;20399;-75
2022/11/11 02:27:20;;;;;;;16.25;7.97;;;12.20;99.90;;;;;;5130380;27;20430;-75
2022/11/11 02:29:49;;;;;;;14.88;7.60;;;12.20;99.90;;;;;;5114227;27;20505;-75
2022/11/11 02:32:15;;;;;;;14.02;7.45;;;12.20;99.90;;;;;;5096210;27;20823;-75
2022/11/11 02:34:41;;;;;;;17.40;7.70;;;12.20;99.90;;;;;;5132541;27;20395;-75
2022/11/11 02:37:08;;;;;;;15.73;8.20;;;12.20;99.90;;;;;;5130321;27;20733;-75
2022/11/11 02:39:39;;;;;;;16.90;8.40;;;12.20;99.90;;;;;;5117663;27;20413;-75
2022/11/11 02:42:09;;;;;;;14.80;8.10;;;12.20;99.90;;;;;;5126967;27;20503;-75
2022/11/11 02:44:35;;;;;;;14.20;7.65;;;12.10;99.90;;;;;;5132678;27;20398;-75
2022/11/11 02:47:01;;;;;;;15.32;7.90;;;12.20;99.90;;;;;;5128745;27;20404;-75
2022/11/11 02:49:26;;;;;;;16.43;8.17;;;12.10;99.90;;;;;;5122544;27;20508;-75
2022/11/11 02:51:52;;;;;;;15.05;7.85;;;12.20;99.90;;;;;;5096487;27;20438;-75
2022/11/11 02:54:17;;;;;;;14.93;7.83;;;12.10;99.90;;;;;;5131694;27;20406;-75
2022/11/11 02:59:27;;;;;;;17.20;7.70;;;12.10;99.90;;;;;;5114256;27;20465;-75
2022/11/11 03:01:53;;;;;;;16.52;8.10;;;12.10;99.90;;;;;;5118239;27;20450;-75
2022/11/11 03:04:18;;;;;;;14.97;8.23;;;12.10;99.90;;;;;;5129943;27;21244;-75
2022/11/11 03:06:44;;;;;;;19.27;8.88;;;12.10;99.90;;;;;;5131819;27;20399;-74
2022/11/11 03:09:10;;;;;;;18.77;8.97;;;12.10;99.90;;;;;;5131756;27;20410;-75
2022/11/11 03:11:37;;;;;;;20.02;9.10;;;12.10;99.90;;;;;;5130132;27;20426;-75
2022/11/11 03:14:04;;;;;;;18.40;9.63;;;12.10;99.90;;;;;;5099551;28;20405;-75
2022/11/11 03:19:14;;;;;;;19.05;9.65;;;12.10;99.90;;;;;;5125295;27;20753;-75
2022/11/11 03:21:39;;;;;;;18.13;9.40;;;12.10;99.90;;;;;;5095254;27;20395;-75
2022/11/11 03:24:05;;;;;;;17.98;10.30;;;12.10;99.90;;;;;;5112283;27;20397;-75
2022/11/11 03:26:31;;;;;;;17.02;9.82;;;12.10;99.90;;;;;;5109347;28;20877;-75
2022/11/11 03:28:57;;;;;;;18.07;11.20;;;12.10;99.90;;;;;;5110355;27;20486;-75
2022/11/11 03:31:22;;;;;;;17.63;11.35;;;12.10;99.90;;;;;;5125466;27;20423;-75
2022/11/11 03:33:48;;;;;;;18.53;11.80;;;12.00;99.90;;;;;;5098904;27;20935;-75
2022/11/11 03:36:14;;;;;;;19.70;11.60;;;12.00;99.90;;;;;;5103611;28;20404;-75
2022/11/11 03:38:39;;;;;;;20.57;12.57;;;12.00;99.90;;;;;;5125377;27;21120;-75
2022/11/11 03:41:05;;;;;;;23.70;13.40;;;12.00;99.90;;;;;;5130258;27;20915;-75
2022/11/11 03:43:33;;;;;;;20.42;13.07;;;11.90;99.90;;;;;;5118767;27;20428;-75
2022/11/11 03:46:01;;;;;;;22.70;14.05;;;11.90;99.90;;;;;;5123995;27;21358;-74
2022/11/11 03:48:29;;;;;;;21.13;14.85;;;11.90;99.90;;;;;;5130113;27;20406;-75
2022/11/11 03:50:55;;;;;;;21.53;15.23;;;11.80;99.90;;;;;;5124279;27;20543;-75
2022/11/11 03:53:22;;;;;;;23.63;15.70;;;11.80;99.90;;;;;;5123855;27;21137;-74
2022/11/11 03:55:48;;;;;;;24.03;15.97;;;11.80;99.90;;;;;;5120124;27;20958;-75
2022/11/11 03:58:15;;;;;;;21.17;16.05;;;11.80;99.90;;;;;;5106784;28;20462;-75
2022/11/11 04:00:41;;;;;;;22.90;15.50;;;11.70;99.90;;;;;;5083075;28;20502;-75
2022/11/11 04:11:43;;;;;;;23.10;16.73;;;11.70;99.90;;;;;;5113451;27;20477;-75
2022/11/11 04:16:56;;;;;;;22.20;17.07;;;11.70;99.90;;;;;;5109626;27;20413;-75
2022/11/11 04:22:06;;;;;;;26.25;17.88;;;11.60;99.90;;;;;;5129953;27;20398;-75
2022/11/11 04:27:17;;;;;;;24.03;18.17;;;11.60;99.90;;;;;;5129037;27;20409;-75
2022/11/11 04:29:45;;;;;;;25.80;17.57;;;11.60;99.90;;;;;;5117205;27;20432;-75
2022/11/11 04:32:37;;;;;;;25.77;18.30;;;11.60;99.90;;;;;;5129819;27;20461;-75
2022/11/11 04:35:08;;;;;;;28.15;17.83;;;11.60;99.90;;;;;;5129971;27;20427;-75
2022/11/11 04:37:36;;;;;;;25.47;17.73;;;11.60;99.90;;;;;;5130174;27;20810;-75
2022/11/11 04:42:46;;;;;;;26.17;17.90;;;11.60;99.90;;;;;;5109800;27;20403;-75
2022/11/11 04:45:29;;;;;;;27.25;17.88;;;11.60;99.90;;;;;;5129629;27;21209;-75
2022/11/11 04:48:02;;;;;;;26.42;18.00;;;11.60;99.90;;;;;;5126093;27;20395;-75
2022/11/11 04:50:34;;;;;;;25.27;18.23;;;11.60;99.90;;;;;;5102868;28;20408;-75
2022/11/11 04:53:01;;;;;;;25.13;18.37;;;11.60;99.90;;;;;;5103257;28;21134;-75
2022/11/11 04:58:12;;;;;;;30.38;19.40;;;11.60;99.90;;;;;;5124213;27;20450;-74
2022/11/11 05:00:38;;;;;;;27.20;17.83;;;11.60;99.90;;;;;;5104725;27;20935;-74
2022/11/11 05:03:17;;;;;;;27.92;19.05;;;11.60;99.90;;;;;;5081105;28;20404;-74
2022/11/11 05:11:24;;;;;;;25.85;18.70;;;11.60;99.90;;;;;;5102113;28;20443;-75
2022/11/11 05:22:17;;;;;;;29.95;19.70;;;11.50;99.90;;;;;;5108439;27;20407;-75
2022/11/11 05:27:27;;;;;;;27.30;19.02;;;11.60;99.90;;;;;;5109880;27;20433;-75
2022/11/11 05:29:53;;;;;;;30.98;20.20;;;11.60;99.90;;;;;;5110927;27;20402;-74
2022/11/11 05:32:20;;;;;;;29.30;19.92;;;11.60;99.90;;;;;;5129500;27;20933;-75
2022/11/11 05:34:46;;;;;;;31.83;20.70;;;11.60;99.90;;;;;;5121509;27;20400;-75
2022/11/11 05:37:12;;;;;;;27.33;20.77;;;11.50;99.90;;;;;;5091465;28;20404;-74
2022/11/11 05:39:38;;;;;;;34.05;20.83;;;11.50;99.90;;;;;;5124390;27;20406;-75
2022/11/11 05:42:04;;;;;;;30.73;20.67;;;11.60;99.90;;;;;;5128601;27;20772;-74
2022/11/11 05:44:30;;;;;;;29.90;20.63;;;11.50;99.90;;;;;;5129408;28;20402;-75
2022/11/11 05:46:55;;;;;;;29.80;21.23;;;11.50;99.90;;;;;;5129036;28;20910;-75
2022/11/11 05:49:22;;;;;;;33.03;22.17;;;11.50;99.90;;;;;;5128385;28;20403;-75
2022/11/11 05:51:48;;;;;;;28.73;20.95;;;11.50;99.90;;;;;;5102436;28;20427;-75
2022/11/11 05:54:14;;;;;;;29.15;20.63;;;11.50;99.90;;;;;;5128801;28;20956;-75
2022/11/11 05:56:40;;;;;;;34.17;21.50;;;11.50;99.90;;;;;;5128350;28;20443;-75
2022/11/11 05:59:06;;;;;;;32.38;21.90;;;11.50;99.90;;;;;;5128527;28;20399;-74
2022/11/11 06:01:32;;;;;;;31.40;21.50;;;11.50;99.90;;;;;;5084721;28;20392;-75
2022/11/11 06:03:58;;;;;;;30.13;21.92;;;11.50;99.90;;;;;;5104198;28;20818;-74
2022/11/11 06:06:24;;;;;;;30.85;21.08;;;11.50;99.90;;;;;;5107238;28;20810;-74
2022/11/11 06:08:50;;;;;;;33.63;21.63;;;11.50;99.90;;;;;;5111840;28;20405;-74
2022/11/11 06:11:15;;;;;;;33.20;22.30;;;11.50;99.90;;;;;;5107025;28;20766;-75
2022/11/11 06:13:41;;;;;;;29.55;21.25;;;11.50;99.90;;;;;;5126167;28;20399;-74
2022/11/11 06:16:07;;;;;;;30.57;20.87;;;11.50;99.90;;;;;;5093992;28;20404;-74
2022/11/11 06:18:33;;;;;;;31.67;21.27;;;11.50;99.90;;;;;;5109847;28;20399;-74
2022/11/11 06:20:59;;;;;;;30.70;20.77;;;11.40;99.90;;;;;;5121543;28;20770;-75
2022/11/11 06:23:26;;;;;;;31.40;21.42;;;11.40;99.90;;;;;;5122412;28;20932;-74
2022/11/11 06:28:48;;;;;;;33.83;21.92;;;11.40;99.90;;;;;;5103810;28;20444;-74
2022/11/11 06:31:17;;;;;;;31.88;21.90;;;11.30;99.90;;;;;;5120469;28;20969;-74
2022/11/11 06:33:43;;;;;;;26.77;19.77;;;11.30;99.90;;;;;;5106763;28;20407;-74
2022/11/11 06:36:12;;;;;;;29.77;20.98;;;11.30;99.90;;;;;;5117536;28;20404;-75
2022/11/11 06:38:38;;;;;;;30.33;20.03;;;11.30;99.90;;;;;;5093553;28;20939;-74
2022/11/11 06:41:04;;;;;;;28.33;20.00;;;11.30;99.90;;;;;;5108756;28;20918;-74
2022/11/11 06:43:30;;;;;;;27.77;20.30;;;11.30;99.90;;;;;;5128516;28;20410;-75
2022/11/11 06:45:56;;;;;;;27.33;19.90;;;11.30;99.90;;;;;;5109413;28;20888;-75
2022/11/11 06:48:23;;;;;;;28.35;19.35;;;11.30;99.90;;;;;;5092814;28;20407;-74
2022/11/11 06:50:49;;;;;;;28.65;19.40;;;11.30;99.90;;;;;;5117200;27;20934;-74
2022/11/11 06:53:17;;;;;;;27.75;19.08;;;11.40;99.90;;;;;;5127958;27;20501;-75
2022/11/11 06:55:43;;;;;;;30.60;18.50;;;11.40;99.90;;;;;;5129481;27;20496;-75
2022/11/11 06:58:13;;;;;;;28.90;18.50;;;11.40;99.90;;;;;;5123901;27;20928;-75
2022/11/11 07:00:39;;;;;;;29.30;18.25;;;11.50;99.90;;;;;;5125213;27;20494;-75
2022/11/11 07:03:06;;;;;;;28.20;18.95;;;11.50;99.90;;;;;;5110388;28;20451;-75
2022/11/11 07:05:32;;;;;;;27.63;18.40;;;11.60;99.90;;;;;;5127705;27;20391;-75
2022/11/11 07:08:09;;;;;;;27.63;18.25;;;11.60;99.90;;;;;;5099666;27;20480;-75
2022/11/11 07:10:37;;;;;;;28.15;19.00;;;11.60;99.90;;;;;;5130140;27;20407;-74
2022/11/11 07:13:04;;;;;;;26.80;19.05;;;11.60;99.90;;;;;;5103717;27;20399;-75
2022/11/11 07:15:30;;;;;;;26.38;18.25;;;11.60;99.90;;;;;;5110965;27;20438;-75
2022/11/11 07:17:55;;;;;;;27.52;18.20;;;11.60;99.90;;;;;;5112282;27;20477;-75
2022/11/11 07:20:21;;;;;;;26.50;18.52;;;11.70;99.90;;;;;;5128360;27;20407;-75
2022/11/11 07:22:47;;;;;;;27.30;18.70;;;11.70;99.90;;;;;;5092479;28;20400;-75
2022/11/11 07:25:13;;;;;;;28.50;18.83;;;11.70;99.90;;;;;;5107589;27;20399;-75
2022/11/11 07:27:41;;;;;;;28.00;18.63;;;11.70;99.90;;;;;;5130772;27;20485;-75
2022/11/11 07:30:08;;;;;;;27.98;18.48;;;11.70;99.90;;;;;;5098235;27;20399;-75
2022/11/11 07:32:34;;;;;;;28.77;18.50;;;11.70;99.90;;;;;;5102645;28;20435;-74
2022/11/11 07:35:01;;;;;;;27.17;18.95;;;11.70;99.90;;;;;;5107902;27;20817;-75
2022/11/11 07:37:26;;;;;;;30.33;18.88;;;11.70;99.90;;;;;;5111728;27;20923;-75
2022/11/11 07:39:53;;;;;;;28.40;19.23;;;11.70;99.90;;;;;;5116520;27;20438;-75
2022/11/11 07:42:21;;;;;;;26.85;18.75;;;11.70;99.90;;;;;;5110180;27;20411;-74
2022/11/11 07:44:46;;;;;;;26.40;18.80;;;11.70;99.90;;;;;;5126594;27;20407;-75
2022/11/11 07:47:12;;;;;;;30.08;19.20;;;11.70;99.90;;;;;;5130223;27;20397;-75
2022/11/11 07:49:37;;;;;;;28.37;19.57;;;11.80;99.90;;;;;;5112485;27;20922;-75
2022/11/11 07:52:03;;;;;;;27.50;19.17;;;11.70;99.90;;;;;;5131117;27;20426;-75
2022/11/11 07:54:29;;;;;;;28.63;18.87;;;11.70;99.90;;;;;;5111518;27;20409;-75
2022/11/11 07:56:54;;;;;;;27.55;18.85;;;11.70;99.90;;;;;;5130231;27;20443;-75
2022/11/11 07:59:20;;;;;;;30.27;19.67;;;11.70;99.90;;;;;;5111548;27;20483;-75
2022/11/11 08:01:46;;;;;;;28.65;19.10;;;11.70;99.90;;;;;;5109314;28;20505;-75
2022/11/11 08:04:11;;;;;;;35.00;20.37;;;11.70;99.90;;;;;;5123974;27;20949;-75
2022/11/11 08:06:37;;;;;;;32.33;19.55;;;11.70;99.90;;;;;;5119654;27;20390;-75
2022/11/11 08:09:02;;;;;;;28.07;19.13;;;11.70;99.90;;;;;;5128556;27;20402;-75
2022/11/11 08:14:12;;;;;;;27.90;19.42;;;11.70;99.90;;;;;;5131133;27;20717;-75
2022/11/11 08:16:38;;;;;;;28.20;19.03;;;11.80;99.90;;;;;;5112493;27;20402;-74
2022/11/11 08:19:04;;;;;;;29.00;19.50;;;11.70;99.90;;;;;;5108675;28;20405;-74
2022/11/11 08:21:29;;;;;;;27.20;19.27;;;11.70;99.90;;;;;;5114635;27;20414;-75
2022/11/11 08:23:55;;;;;;;30.20;19.58;;;11.70;99.90;;;;;;5105890;28;20832;-74
2022/11/11 08:26:22;;;;;;;32.93;19.67;;;11.80;99.90;;;;;;5121824;27;20430;-74
2022/11/11 08:28:50;;;;;;;28.35;18.85;;;11.80;99.90;;;;;;5129464;27;20406;-75
2022/11/11 08:31:15;;;;;;;27.40;18.52;;;11.80;99.90;;;;;;5108686;28;20511;-74
2022/11/11 08:33:41;;;;;;;28.03;18.40;;;11.80;99.90;;;;;;5115122;27;20830;-74
2022/11/11 08:36:09;;;;;;;26.52;18.42;;;11.80;99.90;;;;;;5091917;28;20404;-75
2022/11/11 08:38:35;;;;;;;28.08;18.08;;;11.80;99.90;;;;;;5124557;27;20943;-75
2022/11/11 08:41:03;;;;;;;28.02;18.60;;;11.80;99.90;;;;;;5101744;27;20413;-74
2022/11/11 08:43:31;;;;;;;29.43;18.63;;;11.80;99.90;;;;;;5078631;28;20416;-75
2022/11/11 08:45:58;;;;;;;26.25;18.25;;;11.80;99.90;;;;;;5126069;27;20482;-74
2022/11/11 08:48:24;;;;;;;27.40;17.85;;;11.80;99.90;;;;;;5123418;27;20487;-75
2022/11/11 08:50:52;;;;;;;28.02;17.80;;;11.80;99.90;;;;;;5122802;27;20485;-75
2022/11/11 08:53:18;;;;;;;30.48;18.35;;;11.80;99.90;;;;;;5126528;27;20406;-75
2022/11/11 08:55:45;;;;;;;27.73;18.38;;;11.80;99.90;;;;;;5116965;27;20462;-75
2022/11/11 08:58:11;;;;;;;27.77;17.52;;;11.80;99.90;;;;;;5128124;27;20477;-75
2022/11/11 09:00:37;;;;;;;25.98;17.90;;;11.80;99.90;;;;;;5111014;27;20434;-75
2022/11/11 09:03:05;;;;;;;26.63;17.40;;;11.80;99.90;;;;;;5123675;27;20519;-74
2022/11/11 09:05:31;;;;;;;27.52;17.98;;;11.80;99.90;;;;;;5122732;27;20485;-75
2022/11/11 09:08:00;;;;;;;27.13;17.90;;;11.90;99.90;;;;;;5129341;27;20536;-75
2022/11/11 09:10:26;;;;;;;27.08;18.17;;;11.80;99.90;;;;;;5116214;27;20400;-74
2022/11/11 09:12:58;;;;;;;29.60;17.97;;;11.80;99.90;;;;;;5115638;27;20503;-74
2022/11/11 09:15:25;;;;;;;26.45;18.17;;;11.90;99.90;;;;;;5110017;27;20438;-75
2022/11/11 09:17:51;;;;;;;30.05;17.65;;;11.90;99.90;;;;;;5128080;27;20395;-74
2022/11/11 09:20:17;;;;;;;24.30;17.10;;;11.90;99.90;;;;;;5128973;27;20809;-75
2022/11/11 09:22:44;;;;;;;26.30;17.63;;;11.90;99.90;;;;;;5090929;28;20426;-75
2022/11/11 09:25:10;;;;;;;24.80;17.08;;;11.90;99.90;;;;;;5123509;27;20437;-75
2022/11/11 09:27:36;;;;;;;24.27;17.67;;;11.90;99.90;;;;;;5129302;27;20760;-74
2022/11/11 09:30:03;;;;;;;27.20;17.63;;;11.90;99.90;;;;;;5074435;28;20499;-74
2022/11/11 09:32:29;;;;;;;25.38;17.25;;;11.90;99.90;;;;;;5129152;27;20464;-74
2022/11/11 09:34:55;;;;;;;28.80;17.27;;;11.90;99.90;;;;;;5127305;27;20494;-75
2022/11/11 09:37:21;;;;;;;26.17;16.43;;;11.90;99.90;;;;;;5095183;28;20404;-75
2022/11/11 09:39:47;;;;;;;25.67;16.67;;;12.00;99.90;;;;;;5104602;27;20399;-75
2022/11/11 09:42:16;;;;;;;24.67;16.30;;;12.00;99.90;;;;;;5129122;27;20471;-75
2022/11/11 09:45:08;;;;;;;24.40;15.50;;;12.00;99.90;;;;;;5110518;28;20494;-75
2022/11/11 09:47:49;;;;;;;22.65;15.88;;;12.00;99.90;;;;;;5107018;28;20895;-74
2022/11/11 09:50:22;;;;;;;24.77;16.75;;;12.00;99.90;;;;;;5115978;28;20403;-75
2022/11/11 09:53:00;;;;;;;24.70;15.80;;;12.00;99.90;;;;;;5128616;28;20426;-74
2022/11/11 09:55:43;;;;;;;21.40;15.93;;;12.10;99.90;;;;;;5128444;28;20415;-75
2022/11/11 09:58:32;;;;;;;21.52;15.40;;;12.10;99.90;;;;;;5110590;28;20483;-74
2022/11/11 10:01:08;;;;;;;22.45;15.60;;;12.10;99.90;;;;;;5117535;28;20396;-75
2022/11/11 10:03:40;;;;;;;23.45;16.10;;;12.10;99.90;;;;;;5106571;28;20438;-74
2022/11/11 10:06:09;;;;;;;22.77;15.97;;;12.10;99.90;;;;;;5126273;28;20390;-75
2022/11/11 10:08:46;;;;;;;21.48;15.88;;;12.10;99.90;;;;;;5093088;28;20413;-74
2022/11/11 10:11:21;;;;;;;23.50;15.10;;;12.00;99.90;;;;;;5128108;28;20456;-74
2022/11/11 10:13:46;;;;;;;22.47;16.47;;;12.10;99.90;;;;;;5106188;28;20884;-74
2022/11/11 10:16:47;;;;;;;19.60;14.38;;;12.10;99.90;;;;;;5116068;28;20438;-74
2022/11/11 10:19:28;;;;;;;19.48;14.18;;;12.00;99.90;;;;;;5092786;28;20411;-75
2022/11/11 10:21:59;;;;;;;19.55;14.77;;;12.00;99.90;;;;;;5106099;28;20455;-75
2022/11/11 10:24:29;;;;;;;20.58;14.77;;;12.00;99.90;;;;;;5115702;27;20440;-75
2022/11/11 10:26:58;;;;;;;24.97;15.67;;;12.00;99.90;;;;;;5128286;27;20398;-75
2022/11/11 10:29:29;;;;;;;19.80;14.00;;;12.00;99.90;;;;;;5077117;28;20464;-75
2022/11/11 10:32:01;;;;;;;20.27;14.10;;;12.00;99.90;;;;;;5127825;27;20422;-75
2022/11/11 10:34:32;;;;;;;20.73;15.05;;;12.00;99.90;;;;;;5085160;28;20404;-74
2022/11/11 10:36:59;;;;;;;18.73;13.80;;;12.00;99.90;;;;;;5121461;27;20440;-74
2022/11/11 10:39:45;;;;;;;20.27;14.30;;;12.00;99.90;;;;;;5093891;28;20861;-74
2022/11/11 10:42:19;;;;;;;19.35;14.07;;;12.00;99.90;;;;;;5089302;28;20423;-74
2022/11/11 10:44:45;;;;;;;19.42;14.20;;;12.00;99.90;;;;;;5127596;27;20419;-74
2022/11/11 10:47:32;;;;;;;19.52;14.13;;;12.00;99.90;;;;;;5131333;27;20406;-74
2022/11/11 10:50:20;;;;;;;18.58;13.35;;;12.00;99.90;;;;;;5128986;27;21045;-74
2022/11/11 10:53:01;;;;;;;20.58;14.27;;;12.00;99.90;;;;;;5130852;27;20422;-74
2022/11/11 10:55:37;;;;;;;19.30;14.20;;;11.90;99.90;;;;;;5102857;27;20995;-75
2022/11/11 10:58:50;;;;;;;20.85;15.23;;;11.90;99.90;;;;;;5124487;27;20418;-74
2022/11/11 11:01:26;;;;;;;19.77;15.10;;;11.90;99.90;;;;;;5010332;28;20473;-73
2022/11/11 11:04:00;;;;;;;20.58;14.23;;;11.90;99.90;;;;;;5011326;28;20517;-74
2022/11/11 11:06:33;;;;;;;19.52;14.73;;;11.90;99.90;;;;;;5081520;27;20405;-75
2022/11/11 11:09:30;;;;;;;21.50;14.52;;;11.90;99.90;;;;;;5126024;27;20907;-74
2022/11/11 11:12:21;;;;;;;21.63;14.25;;;11.90;99.90;;;;;;5095380;27;20432;-75
2022/11/11 11:14:55;;;;;;;19.87;14.53;;;12.00;99.90;;;;;;5120003;27;20895;-75
2022/11/11 11:18:02;;;;;;;21.42;15.27;;;12.00;99.90;;;;;;5130411;27;20539;-74
2022/11/11 11:20:28;;;;;;;19.02;14.20;;;12.00;99.90;;;;;;5020388;28;20772;-74
2022/11/11 11:22:58;;;;;;;17.85;14.90;;;12.00;99.90;;;;;;5112933;27;20407;-75
2022/11/11 11:25:25;;;;;;;17.67;14.50;;;12.00;99.90;;;;;;5130827;27;20413;-75
2022/11/11 11:27:52;;;;;;;19.48;13.93;;;12.10;99.90;;;;;;5130425;27;20387;-74
2022/11/11 11:30:20;;;;;;;18.55;14.02;;;12.00;99.90;;;;;;5114382;27;20919;-74
2022/11/11 11:33:00;;;;;;;19.88;14.90;;;12.10;99.90;;;;;;5111735;27;20434;-74
2022/11/11 11:35:33;;;;;;;18.27;14.52;;;12.10;99.90;;;;;;5130101;27;20776;-74
2022/11/11 11:37:59;;;;;;;18.15;14.00;;;12.10;99.90;;;;;;5113979;27;20436;-74
2022/11/11 11:40:25;;;;;;;17.08;13.88;;;12.10;99.90;;;;;;5130215;27;20465;-74
2022/11/11 11:42:50;;;;;;;17.17;14.00;;;12.10;99.90;;;;;;5128964;27;20401;-74
2022/11/11 11:45:23;;;;;;;19.97;14.53;;;12.10;99.90;;;;;;5130208;27;20824;-74
2022/11/11 11:47:55;;;;;;;19.40;14.55;;;12.20;99.90;;;;;;5115053;27;20754;-74
2022/11/11 11:50:38;;;;;;;18.00;14.27;;;12.10;99.90;;;;;;5119783;27;20824;-74
2022/11/11 11:53:20;;;;;;;19.08;14.75;;;12.20;99.90;;;;;;5124948;27;20428;-74
2022/11/11 11:55:54;;;;;;;19.58;14.75;;;12.20;99.90;;;;;;5078684;27;20421;-74
2022/11/11 11:58:39;;;;;;;19.08;14.32;;;12.20;99.90;;;;;;5122443;27;20745;-74
2022/11/11 12:01:22;;;;;;;18.27;14.65;;;12.20;99.90;;;;;;5109820;27;20886;-74
2022/11/11 12:04:04;;;;;;;18.67;14.50;;;12.30;99.90;;;;;;5129409;27;20768;-74
2022/11/11 12:06:37;;;;;;;19.10;14.68;;;12.20;99.90;;;;;;5089646;27;20474;-74
2022/11/11 12:09:15;;;;;;;20.20;14.38;;;12.30;99.90;;;;;;5107377;27;20557;-74
2022/11/11 12:12:12;;;;;;;17.83;13.98;;;12.30;99.90;;;;;;5124880;27;20458;-74
2022/11/11 12:15:04;;;;;;;18.65;14.23;;;12.30;99.90;;;;;;5127530;27;20486;-74
2022/11/11 12:17:35;;;;;;;19.05;14.63;;;12.30;99.90;;;;;;5107973;28;20444;-74
2022/11/11 12:20:12;;;;;;;21.25;14.70;;;12.30;99.90;;;;;;5111990;27;20415;-74
2022/11/11 12:22:59;;;;;;;17.42;14.25;;;12.30;99.90;;;;;;5104858;28;20945;-74
2022/11/11 12:25:40;;;;;;;20.05;14.70;;;12.30;99.90;;;;;;5123392;27;20429;-74
2022/11/11 12:28:40;;;;;;;19.05;14.45;;;12.30;99.90;;;;;;5126518;27;20424;-74
2022/11/11 12:31:11;;;;;;;20.27;14.35;;;12.30;99.90;;;;;;5116976;27;20453;-75
2022/11/11 12:33:52;;;;;;;18.88;13.57;;;12.30;99.90;;;;;;5128437;27;20533;-74
2022/11/11 12:36:42;;;;;;;18.67;13.97;;;12.30;99.90;;;;;;5102543;27;20418;-74
2022/11/11 12:39:26;;;;;;;21.57;15.03;;;12.30;99.90;;;;;;5100560;27;20430;-74
2022/11/11 12:42:33;;;;;;;19.42;14.02;;;12.30;99.90;;;;;;5108084;27;20506;-74
2022/11/11 12:45:29;;;;;;;18.05;14.70;;;12.30;99.90;;;;;;5086548;28;20436;-74
2022/11/11 12:48:16;;;;;;;20.03;14.60;;;12.30;99.90;;;;;;5124356;27;20422;-74
2022/11/11 12:50:49;;;;;;;19.63;14.30;;;12.20;99.90;;;;;;5118150;27;20495;-75
2022/11/11 12:53:36;;;;;;;21.05;15.05;;;12.20;99.90;;;;;;5107396;28;20482;-74
2022/11/11 12:56:24;;;;;;;20.48;14.85;;;12.20;99.90;;;;;;5124919;27;20765;-74
2022/11/11 12:59:03;;;;;;;19.20;14.32;;;12.20;99.90;;;;;;5128827;27;20441;-74
2022/11/11 13:01:50;;;;;;;18.80;14.60;;;12.20;99.90;;;;;;5130162;27;20410;-74
2022/11/11 13:04:53;;;;;;;21.35;14.82;;;12.20;99.90;;;;;;5128863;27;21164;-75
2022/11/11 13:07:46;;;;;;;18.13;13.98;;;12.20;99.90;;;;;;5127198;27;20425;-75
2022/11/11 13:10:49;;;;;;;21.15;13.23;;;12.10;99.90;;;;;;5120009;27;20529;-75
2022/11/11 13:13:40;;;;;;;18.13;13.83;;;12.10;99.90;;;;;;5127442;27;20438;-75
2022/11/11 13:16:09;;;;;;;19.80;14.63;;;12.10;99.90;;;;;;5100208;28;20620;-75
2022/11/11 13:19:01;;;;;;;20.40;14.30;;;12.10;99.90;;;;;;5111159;27;20403;-75
2022/11/11 13:21:54;;;;;;;19.15;14.27;;;12.10;99.90;;;;;;5126338;27;20439;-75
2022/11/11 13:24:22;;;;;;;19.40;13.68;;;12.10;99.90;;;;;;5116801;27;20410;-75
2022/11/11 13:27:03;;;;;;;20.48;14.07;;;12.10;99.90;;;;;;5126171;27;20486;-75
2022/11/11 13:29:53;;;;;;;17.17;13.60;;;12.10;99.90;;;;;;5106524;28;20779;-75
2022/11/11 13:32:25;;;;;;;22.60;13.82;;;12.10;99.90;;;;;;5128686;27;20435;-74
2022/11/11 13:34:52;;;;;;;19.93;13.93;;;12.10;99.90;;;;;;5105081;28;20432;-75
2022/11/11 13:37:32;;;;;;;18.98;13.43;;;12.10;99.90;;;;;;5110831;27;20403;-74
2022/11/11 13:40:11;;;;;;;18.27;13.75;;;12.10;99.90;;;;;;5124841;27;20928;-74
2022/11/11 13:42:40;;;;;;;18.17;13.23;;;12.10;99.90;;;;;;5129066;27;20406;-75
2022/11/11 13:45:12;;;;;;;17.60;13.55;;;12.10;99.90;;;;;;5122372;27;20410;-75
2022/11/11 13:47:43;;;;;;;17.73;13.20;;;12.10;99.90;;;;;;5118044;28;20507;-75
2022/11/11 13:50:35;;;;;;;18.77;13.50;;;12.10;99.90;;;;;;5122060;28;20413;-74
2022/11/11 13:53:03;;;;;;;18.45;13.55;;;12.10;99.90;;;;;;5126140;28;20518;-75
2022/11/11 13:55:36;;;;;;;18.35;13.15;;;12.10;99.90;;;;;;5125772;28;20427;-75
2022/11/11 13:58:04;;;;;;;17.00;12.93;;;12.10;99.90;;;;;;5129026;28;20410;-74
2022/11/11 14:00:37;;;;;;;17.90;13.10;;;12.10;99.90;;;;;;5129991;27;20422;-74